Newell, West Virginia
Current Conditions -  °F | °C
As of 2:47 PM on Thursday 30 Oct 2014 (Local Time) from KBVI Reporting Station
Overcast Overcast  
Wind Chill: 48°   Ceiling: 4000
Heat Index: 48°   Visibility: 10mi
Dew Point: 36°   Wind: 0mph
Humidity: 62%   Direction: NA
Pressure: 30.07"   Gusts: NA
Location:  40.62°N, 80.61°W
Report Text: KBVI 301847Z 00000KT 10SM SCT032 OVC040 09/02 A3007
Loading
Personal Weather Stations






























Interactive Weather Map
Tropical Storm Tracking
New forecast layout! Learn more

10-Day Weather Forecast

Advertisements
Track Severe Weather on mobile